Time;durP1;ratioP1;P1;durP2;ratioP2;P2;SDS_P1;SDS_P2;PMS_P1;PMS_P2;Temp;Humidity;BMP_temperature;BMP_pressure;BME280_temperature;BME280_humidity;BME280_pressure;Samples;Min_cycle;Max_cycle;Signal;HPM_P1;HPM_P2
2022/08/24 00:03:37;;;;;;;16.00;3.97;;;;;;;24.55;37.75;100314.31;31682993;27;20059;-70
2022/08/24 00:18:39;;;;;;;13.85;3.88;;;;;;;24.50;37.73;100312.31;31689812;27;20055;-70
2022/08/24 00:33:41;;;;;;;13.73;3.63;;;;;;;24.41;37.73;100337.53;31711012;27;20035;-71
2022/08/24 00:48:48;;;;;;;9.40;3.07;;;;;;;24.35;37.53;100320.91;31666196;27;20052;-71
2022/08/24 01:03:50;;;;;;;18.52;3.58;;;;;;;24.36;36.95;100352.19;31665749;27;20059;-70
2022/08/24 01:18:57;;;;;;;13.50;3.38;;;;;;;24.31;36.51;100353.72;31686731;27;20044;-71
2022/08/24 01:34:00;;;;;;;16.63;4.30;;;;;;;24.19;36.58;100359.75;31669642;27;20097;-71
2022/08/24 01:49:04;;;;;;;18.65;3.92;;;;;;;23.97;36.71;100366.81;31677234;27;20097;-70
2022/08/24 02:04:08;;;;;;;18.70;4.40;;;;;;;23.76;37.32;100384.97;31675227;27;20056;-70
2022/08/24 02:19:10;;;;;;;20.73;4.45;;;;;;;23.58;37.39;100396.53;31674483;27;20059;-71
2022/08/24 02:34:12;;;;;;;22.67;3.80;;;;;;;23.38;37.87;100389.94;31672768;27;20043;-71
2022/08/24 02:49:14;;;;;;;22.67;3.87;;;;;;;23.36;37.64;100405.53;31675614;27;20059;-71
2022/08/24 03:04:17;;;;;;;25.80;4.33;;;;;;;23.35;37.00;100395.69;31676044;27;20052;-70
2022/08/24 03:19:21;;;;;;;16.85;3.40;;;;;;;23.32;37.09;100403.00;31644342;28;20048;-71
2022/08/24 03:34:23;;;;;;;23.23;3.03;;;;;;;23.37;36.32;100404.28;31653210;27;20097;-72
2022/08/24 03:49:25;;;;;;;17.90;2.67;;;;;;;23.65;36.18;100426.50;31684636;27;20043;-71
2022/08/24 04:04:28;;;;;;;16.63;3.03;;;;;;;23.92;36.04;100420.25;31684811;27;20067;-71
2022/08/24 04:19:30;;;;;;;6.85;2.25;;;;;;;24.31;35.64;100416.78;31690718;27;20063;-73
2022/08/24 04:34:32;;;;;;;8.90;2.27;;;;;;;24.50;35.42;100417.75;31709772;27;20059;-71
2022/08/24 04:49:35;;;;;;;;;;;;;;;24.88;35.44;100420.94;31710253;27;20389;-72
2022/08/24 05:04:36;;;;;;;9.27;2.63;;;;;;;25.15;35.32;100422.88;31699248;27;19928;-73
2022/08/24 05:19:38;;;;;;;9.30;2.43;;;;;;;25.69;34.63;100439.06;31654122;27;20044;-72
2022/08/24 05:34:40;;;;;;;10.53;2.03;;;;;;;26.35;34.48;100428.69;31687178;27;20048;-71
2022/08/24 05:49:42;;;;;;;;;;;;;;;26.47;34.08;100427.31;31684787;27;20054;-71
2022/08/24 06:04:44;;;;;;;14.52;2.05;;;;;;;26.84;33.83;100433.00;31681112;27;19941;-70
2022/08/24 06:19:46;;;;;;;5.50;1.85;;;;;;;27.51;32.74;100440.56;31691189;27;20062;-71
2022/08/24 06:34:49;;;;;;;5.95;1.88;;;;;;;28.31;31.64;100424.16;31684119;27;20036;-71
2022/08/24 06:49:51;;;;;;;6.38;1.88;;;;;;;28.81;30.69;100435.19;31680478;27;20051;-72
2022/08/24 07:04:52;;;;;;;6.32;2.00;;;;;;;29.51;29.77;100410.38;31662475;27;20131;-72
2022/08/24 07:19:55;;;;;;;8.52;1.80;;;;;;;29.58;28.55;100394.19;31649062;28;20401;-73
2022/08/24 07:34:56;;;;;;;5.63;1.55;;;;;;;30.32;28.08;100401.00;31679646;28;20051;-72
2022/08/24 07:49:58;;;;;;;8.80;1.92;;;;;;;31.19;27.90;100400.41;31663763;28;20047;-73
2022/08/24 08:05:00;;;;;;;5.40;1.83;;;;;;;31.32;27.06;100391.88;31670829;28;20040;-78
2022/08/24 08:20:05;;;;;;;6.30;2.35;;;;;;;31.91;26.26;100396.66;31674436;28;20409;-81
2022/08/24 08:35:08;;;;;;;4.03;1.77;;;;;;;32.88;23.84;100374.63;31707422;27;20050;-77
2022/08/24 08:50:24;;;;;;;2.50;1.70;;;;;;;33.51;23.97;100366.09;31704744;27;20043;-82
2022/08/24 09:05:26;;;;;;;10.68;2.05;;;;;;;32.99;23.73;100365.03;31687644;27;20154;-74
2022/08/24 09:20:52;;;;;;;4.53;1.70;;;;;;;34.02;22.71;100365.50;31665789;28;20044;-75
2022/08/24 09:36:12;;;;;;;8.32;1.65;;;;;;;34.06;22.11;100390.44;31657889;27;20052;-72
2022/08/24 09:52:08;;;;;;;2.60;1.40;;;;;;;34.09;21.71;100367.50;31705841;27;20055;-80
2022/08/24 10:07:45;;;;;;;8.50;3.58;;;;;;;34.11;19.82;100345.16;31673307;27;20044;-72
2022/08/24 10:23:02;;;;;;;7.90;2.10;;;;;;;34.51;21.01;100369.56;31674388;27;20487;-73
2022/08/24 10:53:50;;;;;;;5.35;1.95;;;;;;;34.94;18.60;100353.31;31685270;27;20059;-73
2022/08/24 11:08:57;;;;;;;4.78;1.80;;;;;;;35.10;19.24;100346.13;31683191;27;20063;-74
2022/08/24 11:24:02;;;;;;;4.53;1.80;;;;;;;35.82;18.02;100344.69;31671663;27;20048;-73
2022/08/24 11:39:15;;;;;;;5.65;1.85;;;;;;;36.94;17.65;100344.47;31668954;28;20039;-73
2022/08/24 11:54:40;;;;;;;4.78;1.50;;;;;;;34.29;18.67;100333.91;31690748;27;20059;-72
2022/08/24 12:10:13;;;;;;;6.97;1.38;;;;;;;32.95;20.36;100370.28;31702543;28;20055;-72
2022/08/24 12:40:41;;;;;;;5.40;2.10;;;;;;;32.20;21.36;100334.16;31689906;28;20114;-73
2022/08/24 12:55:47;;;;;;;8.00;2.30;;;;;;;32.09;21.48;100330.97;31688272;27;20059;-73
2022/08/24 13:11:04;;;;;;;5.20;2.47;;;;;;;32.00;21.57;100312.63;31682543;27;20087;-73
2022/08/24 13:26:26;;;;;;;5.80;2.08;;;;;;;31.85;21.66;100312.66;31686823;27;20089;-72
2022/08/24 13:41:52;;;;;;;6.70;2.40;;;;;;;31.75;21.65;100314.50;31672776;27;20474;-80
2022/08/24 13:57:47;;;;;;;4.13;1.92;;;;;;;31.64;21.74;100303.66;31712901;27;20051;-81
2022/08/24 14:13:06;;;;;;;7.95;2.20;;;;;;;31.47;22.05;100313.34;31658745;28;20134;-73
2022/08/24 14:28:40;;;;;;;9.33;2.33;;;;;;;31.39;22.15;100298.59;31682220;27;20055;-72
2022/08/24 14:44:05;;;;;;;5.10;2.08;;;;;;;31.29;22.31;100300.44;31691309;27;20131;-72
2022/08/24 14:59:44;;;;;;;6.05;2.72;;;;;;;31.11;22.66;100298.69;31660458;27;20389;-73
2022/08/24 15:15:00;;;;;;;6.68;3.40;;;;;;;30.82;22.36;100293.19;31662456;28;20043;-73
2022/08/24 15:30:06;;;;;;;4.28;2.92;;;;;;;30.63;22.34;100300.41;31648160;28;20066;-75
2022/08/24 15:45:09;;;;;;;4.50;2.33;;;;;;;30.54;22.53;100310.03;31657059;28;20044;-73
2022/08/24 16:16:03;;;;;;;15.20;4.60;;;;;;;29.82;23.46;100335.09;31648778;28;20051;-72
2022/08/24 16:31:06;;;;;;;10.17;5.77;;;;;;;29.59;23.10;100337.69;31638444;28;20623;-72
2022/08/24 16:46:10;;;;;;;12.00;5.95;;;;;;;29.33;22.93;100335.75;31682334;27;20051;-72
2022/08/24 17:01:13;;;;;;;19.30;7.60;;;;;;;29.11;22.42;100344.63;31676670;27;20056;-72
2022/08/24 17:16:17;;;;;;;28.35;8.98;;;;;;;29.01;23.34;100357.56;31722373;27;20058;-71
2022/08/24 17:31:19;;;;;;;21.45;9.73;;;;;;;28.68;23.42;100362.53;31715314;27;20066;-72
2022/08/24 17:46:21;;;;;;;17.25;6.65;;;;;;;28.22;24.53;100363.16;31675408;27;20108;-70
2022/08/24 18:01:24;;;;;;;22.10;6.47;;;;;;;27.76;24.90;100367.97;31678565;27;20154;-71
2022/08/24 18:16:27;;;;;;;14.15;6.55;;;;;;;27.53;25.13;100356.38;31668608;27;20496;-72
2022/08/24 18:31:29;;;;;;;15.27;6.15;;;;;;;27.29;25.71;100354.44;31646636;27;20405;-72
2022/08/24 18:46:31;;;;;;;25.17;8.55;;;;;;;27.19;26.10;100350.53;31662836;27;20055;-70
2022/08/24 19:02:28;;;;;;;18.50;7.40;;;;;;;27.11;25.50;100338.50;31676582;27;20063;-70
2022/08/24 19:16:58;;;;;;;31.42;10.43;;;;;;;27.11;25.55;100338.50;31652015;27;20071;-72
2022/08/24 19:32:01;;;;;;;32.85;9.60;;;;;;;27.09;25.25;100341.06;31642253;27;20101;-72
2022/08/24 19:47:04;;;;;;;16.13;3.55;;;;;;;27.07;24.88;100338.03;31648086;28;20054;-70
2022/08/24 20:02:07;;;;;;;9.15;2.55;;;;;;;26.98;24.56;100327.28;31672373;28;20692;-73
2022/08/24 20:17:09;;;;;;;6.90;2.38;;;;;;;26.79;25.10;100330.03;31679181;28;20485;-70
2022/08/24 20:32:10;;;;;;;13.02;4.35;;;;;;;26.62;24.99;100324.66;31681515;27;20052;-69
2022/08/24 20:47:14;;;;;;;15.52;4.40;;;;;;;26.48;25.35;100306.34;31654227;27;20062;-72
2022/08/24 21:02:16;;;;;;;12.38;4.90;;;;;;;26.46;25.35;100309.66;31684226;27;20447;-70
2022/08/24 21:17:18;;;;;;;14.85;5.05;;;;;;;26.29;25.42;100291.63;31666962;27;20064;-70
2022/08/24 21:47:40;;;;;;;12.25;3.47;;;;;;;26.16;25.48;100270.00;31634313;27;20067;-71
2022/08/24 22:02:42;;;;;;;10.48;2.60;;;;;;;25.98;25.86;100265.91;31647623;27;20044;-70
2022/08/24 22:17:44;;;;;;;6.40;2.33;;;;;;;25.91;26.17;100255.34;31639461;27;21041;-72
2022/08/24 22:32:53;;;;;;;2.33;1.25;;;;;;;25.72;26.70;100249.72;31650595;27;20075;-70
2022/08/24 22:47:55;;;;;;;4.93;1.47;;;;;;;25.48;27.32;100239.31;31664950;27;20048;-70
2022/08/24 23:02:57;;;;;;;4.15;1.35;;;;;;;25.34;27.78;100237.63;31642858;27;20761;-69
2022/08/24 23:19:58;;;;;;;6.23;1.57;;;;;;;25.12;28.68;100240.56;31652018;27;20067;-70
2022/08/24 23:33:20;;;;;;;8.10;1.77;;;;;;;24.91;28.83;100231.09;31650141;27;20140;-70
2022/08/24 23:48:22;;;;;;;7.97;1.63;;;;;;;24.78;29.23;100242.81;31651713;27;20058;-70
